sensor_id;sensor_type;location;lat;lon;timestamp;pressure;altitude;pressure_sealevel;temperature;humidity
43450;BME280;29041;42.266;23.110;2023-06-24T13:34:56;95665.72;;;25.21;100.00
43450;BME280;29041;42.266;23.110;2023-06-24T13:37:44;95684.06;;;24.80;100.00
43450;BME280;29041;42.266;23.110;2023-06-24T13:40:31;95689.13;;;24.31;100.00
43450;BME280;29041;42.266;23.110;2023-06-24T13:43:19;95716.03;;;24.12;100.00
43450;BME280;29041;42.266;23.110;2023-06-24T13:46:06;95719.53;;;23.78;100.00
43450;BME280;29041;42.266;23.110;2023-06-24T13:48:53;95727.25;;;23.10;100.00
43450;BME280;29041;42.266;23.110;2023-06-24T13:51:42;95725.09;;;23.33;100.00
43450;BME280;29041;42.266;23.110;2023-06-24T13:54:29;95710.75;;;23.90;100.00
43450;BME280;29041;42.266;23.110;2023-06-24T13:57:18;95708.53;;;24.16;100.00
43450;BME280;29041;42.266;23.110;2023-06-24T14:00:07;95712.34;;;24.22;100.00
43450;BME280;29041;42.266;23.110;2023-06-24T14:02:55;95710.94;;;24.69;100.00
43450;BME280;29041;42.266;23.110;2023-06-24T14:05:42;95710.28;;;24.85;100.00
43450;BME280;29041;42.266;23.110;2023-06-24T14:08:32;95727.44;;;24.38;100.00
43450;BME280;29041;42.266;23.110;2023-06-24T14:11:20;95724.50;;;24.21;100.00
43450;BME280;29041;42.266;23.110;2023-06-24T14:14:07;95738.72;;;23.78;100.00
43450;BME280;29041;42.266;23.110;2023-06-24T14:16:54;95731.34;;;23.37;100.00
43450;BME280;29041;42.266;23.110;2023-06-24T14:19:41;95743.88;;;23.72;100.00
43450;BME280;29041;42.266;23.110;2023-06-24T14:22:28;95758.06;;;24.02;100.00
43450;BME280;29041;42.266;23.110;2023-06-24T14:25:17;95741.00;;;24.18;100.00
43450;BME280;29041;42.266;23.110;2023-06-24T14:28:05;95753.03;;;23.97;100.00
43450;BME280;29041;42.266;23.110;2023-06-24T14:30:53;95745.31;;;23.84;100.00
43450;BME280;29041;42.266;23.110;2023-06-24T14:33:40;95770.69;;;23.96;100.00
43450;BME280;29041;42.266;23.110;2023-06-24T14:36:27;95790.97;;;23.18;100.00
43450;BME280;29041;42.266;23.110;2023-06-24T14:39:15;95803.03;;;23.70;100.00
43450;BME280;29041;42.266;23.110;2023-06-24T14:42:06;95797.31;;;23.53;100.00
43450;BME280;29041;42.266;23.110;2023-06-24T14:44:54;95766.06;;;23.47;100.00
43450;BME280;29041;42.266;23.110;2023-06-24T14:47:41;95761.19;;;23.66;100.00
43450;BME280;29041;42.266;23.110;2023-06-24T14:50:28;95774.91;;;23.17;100.00
43450;BME280;29041;42.266;23.110;2023-06-24T14:53:19;95809.06;;;23.01;100.00
43450;BME280;29041;42.266;23.110;2023-06-24T14:56:06;95799.88;;;23.29;100.00
43450;BME280;29041;42.266;23.110;2023-06-24T14:58:57;95820.34;;;23.10;100.00
43450;BME280;29041;42.266;23.110;2023-06-24T15:01:44;95817.69;;;22.22;100.00
43450;BME280;29041;42.266;23.110;2023-06-24T15:04:32;95817.19;;;22.52;100.00
43450;BME280;29041;42.266;23.110;2023-06-24T15:07:19;95799.50;;;22.68;100.00
43450;BME280;29041;42.266;23.110;2023-06-24T15:10:07;95804.16;;;21.85;100.00
43450;BME280;29041;42.266;23.110;2023-06-24T15:12:54;95799.13;;;21.62;100.00
43450;BME280;29041;42.266;23.110;2023-06-24T15:15:42;95799.25;;;22.40;100.00
43450;BME280;29041;42.266;23.110;2023-06-24T15:18:29;95786.22;;;22.70;100.00
43450;BME280;29041;42.266;23.110;2023-06-24T15:21:17;95797.59;;;22.61;100.00
43450;BME280;29041;42.266;23.110;2023-06-24T15:24:06;95814.09;;;22.35;100.00
43450;BME280;29041;42.266;23.110;2023-06-24T15:26:53;95765.88;;;21.93;100.00
43450;BME280;29041;42.266;23.110;2023-06-24T15:29:41;95799.88;;;21.81;100.00
43450;BME280;29041;42.266;23.110;2023-06-24T15:32:30;95827.47;;;22.12;100.00
43450;BME280;29041;42.266;23.110;2023-06-24T15:35:20;95831.34;;;22.29;100.00
43450;BME280;29041;42.266;23.110;2023-06-24T15:38:08;95822.31;;;22.35;100.00
43450;BME280;29041;42.266;23.110;2023-06-24T15:40:55;95823.59;;;22.02;100.00
43450;BME280;29041;42.266;23.110;2023-06-24T15:43:42;95836.50;;;21.98;100.00
43450;BME280;29041;42.266;23.110;2023-06-24T15:46:30;95848.59;;;22.00;100.00
43450;BME280;29041;42.266;23.110;2023-06-24T15:49:18;95852.97;;;21.69;100.00
43450;BME280;29041;42.266;23.110;2023-06-24T15:52:06;95865.81;;;21.11;100.00
43450;BME280;29041;42.266;23.110;2023-06-24T15:54:54;95894.69;;;21.95;100.00
43450;BME280;29041;42.266;23.110;2023-06-24T15:57:41;95893.53;;;21.49;100.00
43450;BME280;29041;42.266;23.110;2023-06-24T16:00:28;95871.22;;;22.12;100.00
43450;BME280;29041;42.266;23.110;2023-06-24T16:03:15;95905.63;;;21.95;100.00
43450;BME280;29041;42.266;23.110;2023-06-24T16:06:04;95890.41;;;21.39;100.00
43450;BME280;29041;42.266;23.110;2023-06-24T16:08:51;95893.94;;;21.47;100.00
43450;BME280;29041;42.266;23.110;2023-06-24T16:11:38;95884.53;;;21.23;100.00
43450;BME280;29041;42.266;23.110;2023-06-24T16:14:25;95862.69;;;21.34;100.00
43450;BME280;29041;42.266;23.110;2023-06-24T17:32:08;95824.63;;;22.52;100.00
43450;BME280;29041;42.266;23.110;2023-06-24T17:34:55;95781.16;;;22.64;100.00
43450;BME280;29041;42.266;23.110;2023-06-24T17:37:42;95812.00;;;22.72;100.00
43450;BME280;29041;42.266;23.110;2023-06-24T17:40:30;95815.69;;;22.29;100.00
43450;BME280;29041;42.266;23.110;2023-06-24T17:43:31;95824.69;;;22.41;100.00
43450;BME280;29041;42.266;23.110;2023-06-24T17:46:19;95827.88;;;22.10;100.00
43450;BME280;29041;42.266;23.110;2023-06-24T17:49:07;95820.91;;;21.91;100.00
43450;BME280;29041;42.266;23.110;2023-06-24T17:51:55;95807.91;;;22.24;100.00
43450;BME280;29041;42.266;23.110;2023-06-24T17:54:42;95802.63;;;21.70;100.00
43450;BME280;29041;42.266;23.110;2023-06-24T17:57:29;95791.59;;;22.02;100.00
43450;BME280;29041;42.266;23.110;2023-06-24T18:00:17;95788.13;;;21.84;100.00
43450;BME280;29041;42.266;23.110;2023-06-24T18:03:07;95798.34;;;21.51;100.00
43450;BME280;29041;42.266;23.110;2023-06-24T18:05:56;95792.84;;;21.80;100.00
43450;BME280;29041;42.266;23.110;2023-06-24T18:08:44;95796.69;;;21.97;100.00
43450;BME280;29041;42.266;23.110;2023-06-24T18:11:31;95796.91;;;22.46;100.00
43450;BME280;29041;42.266;23.110;2023-06-24T18:14:19;95795.72;;;22.47;100.00
43450;BME280;29041;42.266;23.110;2023-06-24T18:17:06;95789.44;;;22.50;100.00
43450;BME280;29041;42.266;23.110;2023-06-24T18:19:53;95795.19;;;21.56;100.00
43450;BME280;29041;42.266;23.110;2023-06-24T18:22:42;95785.41;;;21.80;100.00
43450;BME280;29041;42.266;23.110;2023-06-24T18:25:29;95798.69;;;21.78;100.00
43450;BME280;29041;42.266;23.110;2023-06-24T18:28:20;95795.63;;;21.58;100.00
43450;BME280;29041;42.266;23.110;2023-06-24T18:31:08;95785.47;;;21.59;100.00
43450;BME280;29041;42.266;23.110;2023-06-24T18:33:56;95793.66;;;21.62;100.00
43450;BME280;29041;42.266;23.110;2023-06-24T18:36:46;95790.38;;;22.14;100.00
43450;BME280;29041;42.266;23.110;2023-06-24T18:39:35;95771.06;;;21.33;100.00
43450;BME280;29041;42.266;23.110;2023-06-24T18:42:23;95782.34;;;21.10;100.00
43450;BME280;29041;42.266;23.110;2023-06-24T18:45:10;95787.06;;;21.02;100.00
43450;BME280;29041;42.266;23.110;2023-06-24T18:47:59;95762.84;;;20.97;100.00
43450;BME280;29041;42.266;23.110;2023-06-24T18:50:48;95770.28;;;21.00;100.00
43450;BME280;29041;42.266;23.110;2023-06-24T18:53:35;95738.66;;;20.55;100.00
43450;BME280;29041;42.266;23.110;2023-06-24T18:56:25;95755.06;;;20.84;100.00
43450;BME280;29041;42.266;23.110;2023-06-24T18:59:17;95780.03;;;20.83;100.00
43450;BME280;29041;42.266;23.110;2023-06-24T19:02:06;95783.91;;;21.03;100.00
43450;BME280;29041;42.266;23.110;2023-06-24T19:04:59;95746.88;;;21.13;100.00
43450;BME280;29041;42.266;23.110;2023-06-24T19:07:53;95803.00;;;21.50;100.00
43450;BME280;29041;42.266;23.110;2023-06-24T19:10:45;95791.31;;;21.39;100.00
43450;BME280;29041;42.266;23.110;2023-06-24T19:13:35;95757.19;;;22.09;100.00
43450;BME280;29041;42.266;23.110;2023-06-24T19:16:36;95743.00;;;20.96;100.00
43450;BME280;29041;42.266;23.110;2023-06-24T19:19:24;95759.94;;;22.05;100.00
43450;BME280;29041;42.266;23.110;2023-06-24T19:22:12;95764.03;;;21.32;100.00
43450;BME280;29041;42.266;23.110;2023-06-24T19:24:59;95768.31;;;21.44;100.00
43450;BME280;29041;42.266;23.110;2023-06-24T19:27:47;95769.47;;;21.57;100.00
43450;BME280;29041;42.266;23.110;2023-06-24T19:30:36;95783.88;;;21.68;100.00
43450;BME280;29041;42.266;23.110;2023-06-24T19:33:25;95768.50;;;22.18;100.00
43450;BME280;29041;42.266;23.110;2023-06-24T19:36:14;95771.72;;;21.84;100.00
43450;BME280;29041;42.266;23.110;2023-06-24T19:39:01;95777.69;;;21.14;100.00
43450;BME280;29041;42.266;23.110;2023-06-24T19:41:49;95783.84;;;21.76;100.00
43450;BME280;29041;42.266;23.110;2023-06-24T19:44:36;95801.78;;;21.91;100.00
43450;BME280;29041;42.266;23.110;2023-06-24T19:47:25;95812.75;;;21.77;100.00
43450;BME280;29041;42.266;23.110;2023-06-24T19:50:12;95808.38;;;22.01;100.00
43450;BME280;29041;42.266;23.110;2023-06-24T19:53:05;95813.44;;;22.10;100.00
43450;BME280;29041;42.266;23.110;2023-06-24T19:55:52;95810.22;;;22.40;100.00
43450;BME280;29041;42.266;23.110;2023-06-24T19:58:39;95794.34;;;22.02;100.00
43450;BME280;29041;42.266;23.110;2023-06-24T20:01:27;95800.50;;;22.21;100.00
43450;BME280;29041;42.266;23.110;2023-06-24T20:04:15;95795.75;;;22.40;100.00
43450;BME280;29041;42.266;23.110;2023-06-24T20:07:03;95788.88;;;21.95;100.00
43450;BME280;29041;42.266;23.110;2023-06-24T20:09:50;95792.06;;;21.68;100.00
43450;BME280;29041;42.266;23.110;2023-06-24T20:12:39;95793.59;;;21.80;100.00
43450;BME280;29041;42.266;23.110;2023-06-24T20:15:26;95796.56;;;22.26;100.00
43450;BME280;29041;42.266;23.110;2023-06-24T20:18:13;95797.06;;;22.02;100.00
43450;BME280;29041;42.266;23.110;2023-06-24T20:21:04;95799.53;;;21.32;100.00
43450;BME280;29041;42.266;23.110;2023-06-24T20:23:51;95807.66;;;21.86;100.00
43450;BME280;29041;42.266;23.110;2023-06-24T20:26:39;95803.38;;;21.74;100.00
43450;BME280;29041;42.266;23.110;2023-06-24T20:29:26;95805.00;;;21.14;100.00
43450;BME280;29041;42.266;23.110;2023-06-24T20:32:14;95814.25;;;20.66;100.00
43450;BME280;29041;42.266;23.110;2023-06-24T20:35:01;95813.16;;;20.99;100.00
43450;BME280;29041;42.266;23.110;2023-06-24T20:37:50;95816.19;;;20.61;100.00
43450;BME280;29041;42.266;23.110;2023-06-24T20:40:37;95823.63;;;20.68;100.00
43450;BME280;29041;42.266;23.110;2023-06-24T20:43:25;95822.50;;;20.80;100.00
43450;BME280;29041;42.266;23.110;2023-06-24T20:46:12;95810.81;;;21.01;100.00
43450;BME280;29041;42.266;23.110;2023-06-24T20:48:59;95799.00;;;20.36;100.00
43450;BME280;29041;42.266;23.110;2023-06-24T20:51:48;95807.13;;;20.25;100.00
43450;BME280;29041;42.266;23.110;2023-06-24T20:54:36;95801.56;;;20.03;100.00
43450;BME280;29041;42.266;23.110;2023-06-24T20:57:23;95806.63;;;20.01;100.00
43450;BME280;29041;42.266;23.110;2023-06-24T21:00:11;95808.22;;;20.09;100.00
43450;BME280;29041;42.266;23.110;2023-06-24T21:02:59;95808.41;;;20.67;100.00
43450;BME280;29041;42.266;23.110;2023-06-24T21:05:46;95810.78;;;20.83;100.00
43450;BME280;29041;42.266;23.110;2023-06-24T21:08:33;95810.72;;;20.65;100.00
43450;BME280;29041;42.266;23.110;2023-06-24T21:11:22;95812.94;;;20.23;100.00
43450;BME280;29041;42.266;23.110;2023-06-24T21:14:09;95831.47;;;19.92;100.00
43450;BME280;29041;42.266;23.110;2023-06-24T21:16:56;95817.75;;;19.74;100.00
43450;BME280;29041;42.266;23.110;2023-06-24T21:19:43;95819.13;;;19.46;100.00
43450;BME280;29041;42.266;23.110;2023-06-24T21:22:30;95814.34;;;19.85;100.00
43450;BME280;29041;42.266;23.110;2023-06-24T21:25:17;95816.63;;;19.82;100.00
43450;BME280;29041;42.266;23.110;2023-06-24T21:28:06;95815.97;;;20.00;100.00
43450;BME280;29041;42.266;23.110;2023-06-24T21:30:53;95813.03;;;20.49;100.00
43450;BME280;29041;42.266;23.110;2023-06-24T21:33:40;95808.59;;;20.04;100.00
43450;BME280;29041;42.266;23.110;2023-06-24T21:36:28;95812.53;;;20.10;100.00
43450;BME280;29041;42.266;23.110;2023-06-24T21:39:16;95805.06;;;20.00;100.00
43450;BME280;29041;42.266;23.110;2023-06-24T21:42:03;95799.81;;;20.61;100.00
43450;BME280;29041;42.266;23.110;2023-06-24T21:44:51;95795.88;;;20.41;100.00
43450;BME280;29041;42.266;23.110;2023-06-24T21:47:38;95801.75;;;20.47;100.00
43450;BME280;29041;42.266;23.110;2023-06-24T21:50:26;95796.38;;;20.75;100.00
43450;BME280;29041;42.266;23.110;2023-06-24T21:53:18;95801.72;;;20.39;100.00
43450;BME280;29041;42.266;23.110;2023-06-24T21:56:05;95803.16;;;20.08;100.00
43450;BME280;29041;42.266;23.110;2023-06-24T21:58:52;95803.13;;;20.01;100.00
43450;BME280;29041;42.266;23.110;2023-06-24T22:01:40;95785.38;;;19.58;100.00
43450;BME280;29041;42.266;23.110;2023-06-24T22:04:27;95798.34;;;19.83;100.00
43450;BME280;29041;42.266;23.110;2023-06-24T22:07:15;95800.78;;;19.99;100.00
43450;BME280;29041;42.266;23.110;2023-06-24T22:10:02;95804.16;;;19.81;100.00
43450;BME280;29041;42.266;23.110;2023-06-24T22:12:49;95801.66;;;19.51;100.00
43450;BME280;29041;42.266;23.110;2023-06-24T22:15:36;95804.59;;;19.24;100.00
43450;BME280;29041;42.266;23.110;2023-06-24T22:18:25;95802.19;;;19.19;100.00
43450;BME280;29041;42.266;23.110;2023-06-24T22:21:12;95816.44;;;18.98;100.00
43450;BME280;29041;42.266;23.110;2023-06-24T22:23:59;95819.25;;;19.64;100.00
43450;BME280;29041;42.266;23.110;2023-06-24T22:26:46;95810.84;;;19.32;100.00
43450;BME280;29041;42.266;23.110;2023-06-24T22:29:33;95826.88;;;19.44;100.00
43450;BME280;29041;42.266;23.110;2023-06-24T22:32:20;95825.56;;;19.79;100.00
43450;BME280;29041;42.266;23.110;2023-06-24T22:35:09;95823.44;;;20.14;100.00
43450;BME280;29041;42.266;23.110;2023-06-24T22:37:56;95825.72;;;19.45;100.00
43450;BME280;29041;42.266;23.110;2023-06-24T22:40:43;95828.84;;;19.47;100.00
43450;BME280;29041;42.266;23.110;2023-06-24T22:43:31;95835.66;;;19.20;100.00
43450;BME280;29041;42.266;23.110;2023-06-24T22:46:18;95834.31;;;19.02;100.00
43450;BME280;29041;42.266;23.110;2023-06-24T22:49:05;95829.78;;;19.17;100.00
43450;BME280;29041;42.266;23.110;2023-06-24T22:51:53;95826.16;;;19.02;100.00
43450;BME280;29041;42.266;23.110;2023-06-24T22:54:41;95815.00;;;19.74;100.00
43450;BME280;29041;42.266;23.110;2023-06-24T22:57:28;95800.34;;;19.90;100.00
43450;BME280;29041;42.266;23.110;2023-06-24T23:00:16;95812.94;;;19.49;100.00
43450;BME280;29041;42.266;23.110;2023-06-24T23:03:04;95802.47;;;19.59;100.00
43450;BME280;29041;42.266;23.110;2023-06-24T23:05:52;95801.94;;;19.35;100.00
43450;BME280;29041;42.266;23.110;2023-06-24T23:08:41;95799.59;;;19.37;100.00
43450;BME280;29041;42.266;23.110;2023-06-24T23:11:28;95788.56;;;19.15;100.00
43450;BME280;29041;42.266;23.110;2023-06-24T23:14:16;95784.25;;;19.70;100.00
43450;BME280;29041;42.266;23.110;2023-06-24T23:17:05;95772.31;;;19.26;100.00
43450;BME280;29041;42.266;23.110;2023-06-24T23:19:53;95775.69;;;19.05;100.00
43450;BME280;29041;42.266;23.110;2023-06-24T23:22:40;95781.25;;;19.23;100.00
43450;BME280;29041;42.266;23.110;2023-06-24T23:25:29;95782.31;;;19.11;100.00
43450;BME280;29041;42.266;23.110;2023-06-24T23:28:16;95780.78;;;19.14;100.00
43450;BME280;29041;42.266;23.110;2023-06-24T23:31:04;95782.59;;;18.99;100.00
43450;BME280;29041;42.266;23.110;2023-06-24T23:33:58;95775.34;;;19.14;100.00
43450;BME280;29041;42.266;23.110;2023-06-24T23:36:46;95780.44;;;19.19;100.00
43450;BME280;29041;42.266;23.110;2023-06-24T23:39:34;95777.13;;;18.95;100.00
43450;BME280;29041;42.266;23.110;2023-06-24T23:42:24;95774.19;;;19.81;100.00
43450;BME280;29041;42.266;23.110;2023-06-24T23:45:12;95774.53;;;19.69;100.00
43450;BME280;29041;42.266;23.110;2023-06-24T23:48:00;95761.03;;;18.79;100.00
43450;BME280;29041;42.266;23.110;2023-06-24T23:50:47;95763.00;;;18.79;100.00
43450;BME280;29041;42.266;23.110;2023-06-24T23:53:39;95759.72;;;18.62;100.00
43450;BME280;29041;42.266;23.110;2023-06-24T23:56:26;95755.91;;;18.67;100.00
43450;BME280;29041;42.266;23.110;2023-06-24T23:59:14;95760.69;;;18.84;100.00
